Toledo, OH (43601)

8:00 PM EDT on September 04, 2015 (GMT -0400)
University of Toledo | | Change Station
CLOSE
Current Station
Personal Weather Station
Location: Toledo, OH
Elevation: 604 ft
Nearby Weather Stations

Elev 604 ft 41.66 °N, 83.62 °W | Updated 19 seconds ago

Clear
Clear
76.2 °F
Feels Like 77 °F
N
0.0
Wind Variable Wind from WNW
Gusts 0.0 mph

Today
High -- | Low -- °F
--% Chance of Precip.
Yesterday
High -- | Low -- °F
Precip. -- in
7:02 AM 8:02 PM
Waning Gibbous, 54% visible
Pressure 30.02 in
Visibility 10.0 miles
Clouds Clear
Heat Index 77 °F
Dew Point 72 °F
Humidity 88%
Rainfall Not available.
Snow Depth Not available.
UV 0 out of 12
Pollen 6.60 out of 12
Air Quality Not available.
Flu Activity Not available.
METAR KTDZ 042353Z AUTO 18006KT 10SM CLR 23/18 A3003 RMK AO2 SLP166 T02280183 10311 20228 50004
Pressure 30.02 in
Visibility 10.0 miles
Clouds Clear
Heat Index 77 °F
Dew Point 72 °F
Humidity 88%
Rainfall Not available.
Snow Depth Not available.
UV 0 out of 12
Pollen 6.60 out of 12
Air Quality Not available.
Flu Activity Not available.
METAR KTDZ 042353Z AUTO 18006KT 10SM CLR 23/18 A3003 RMK AO2 SLP166 T02280183 10311 20228 50004

10-Day Weather Forecast

×

Almanac

Astronomy

Sep. 04, 2015 Rise Set
Actual Time
Civil Twilight
Nautical Twilight
Astronomical Twilight
Moon
Length of Visible Light
Length of Day
Tomorrow will be .
, % of the Moon is Illuminated

Today's Extremes

State Highs State Lows

Community

WunderPhotos

Upload Photos

1,852,345 photos uploaded!

WunderBlogs® & News

Nearby

Air Quality

  Air Quality AQ Index Pollutant
Not available.

Snow Depth

Station Depth Elevation

Earthquake Activity

City Distance Mag. Time & Date
Minimum magnitude displayed is 2.5.

Coastal Water Temperatures

Place Temperature

Stations

Nearby Weather Stations

Station Location Temp. Windchill Dew Point Humidity Wind Precip. Elev Updated Type